Celebrity Galaxy — 9HJH9 — position and weather

sailwx.info

Track history (hours):
 
Tides and Currents Weather Stations Pressure Air Temp Water Temp Dewpoint Dewpoint Depression Visibility Wind Speed Wind Dir Waves Ship Positions

Celebrity Galaxy

Last reported at 2018-May-19 23:35 UTC. Time now 2018-May-20 21:23 UTC.
Position N 38°57' E 003°24'.

Length 262 m.

Type: Passenger vessel. MMSI: 249051000.

Date/timePositionNaut miles runAvg speedWind from/ knotsBaromVisibWave heightAir tempDewpointWater temp
2018-May-19 23:35N 38°57' E 003°24'1819.1
2018-May-19 22:38N 39°02' E 003°01'419.1
2018-May-19 22:24N 39°03' E 002°56'819.0
2018-May-19 21:57N 39°09' E 002°48'919.3
2018-May-19 21:30N 39°17' E 002°42'918.7
2018-May-19 21:00N 39°25' E 002°39'815.5
2018-May-19 20:30N 39°33' E 002°39'1 1.9
2018-May-19 20:00N 39°33' E 002°38'0 0.0
2018-May-19 19:30N 39°33' E 002°38'0 0.0
2018-May-19 18:59N 39°33' E 002°38'0 0.0
2018-May-19 18:29N 39°33' E 002°38'0 0.0
2018-May-19 17:59N 39°33' E 002°38'0 0.0
2018-May-19 17:29N 39°33' E 002°38'0 0.0
2018-May-19 16:59N 39°33' E 002°38'0 0.0
2018-May-19 16:29N 39°33' E 002°38'0 0.0
2018-May-19 15:59N 39°33' E 002°38'0 0.0
2018-May-19 15:29N 39°33' E 002°38'0 0.0
2018-May-19 14:59N 39°33' E 002°38'0 0.0
2018-May-19 14:29N 39°33' E 002°38'0 0.0
2018-May-19 13:59N 39°33' E 002°38'0 0.0
2018-May-19 13:29N 39°33' E 002°38'0 0.0
2018-May-19 12:59N 39°33' E 002°38'0 0.0
2018-May-19 12:29N 39°33' E 002°38'0 0.0
2018-May-19 11:59N 39°33' E 002°38'0 0.0
2018-May-19 11:29N 39°33' E 002°38'0 0.0
2018-May-19 10:59N 39°33' E 002°38'0 0.0
2018-May-19 10:29N 39°33' E 002°38'0 0.0
2018-May-19 09:59N 39°33' E 002°38'0 0.0
2018-May-19 09:29N 39°33' E 002°38'0 0.0
2018-May-19 08:56N 39°33' E 002°38'0 0.0
2018-May-19 08:29N 39°33' E 002°38'0 0.0
2018-May-19 07:59N 39°33' E 002°38'0 0.0
2018-May-19 07:28N 39°33' E 002°38'0 0.0
2018-May-19 06:58N 39°33' E 002°38'0 0.0
2018-May-19 06:28N 39°33' E 002°38'0 0.0
2018-May-19 05:58N 39°33' E 002°38'0 0.0
2018-May-19 05:28N 39°33' E 002°38'0 0.0
2018-May-19 04:58N 39°33' E 002°38'0 0.0
2018-May-19 04:28N 39°33' E 002°38'0 0.0
2018-May-19 03:58N 39°33' E 002°38'0 0.2
2018-May-19 03:30N 39°33' E 002°38'2 3.8
2018-May-19 03:00N 39°31' E 002°39'511.0
2018-May-19 02:30N 39°27' E 002°35'611.3
2018-May-19 02:00N 39°26' E 002°27'9412.2
2018-May-18 18:19N 40°59' E 002°11'514.0
2018-May-18 17:57N 41°04' E 002°11'613.6
2018-May-18 17:31N 41°10' E 002°11'713.3
2018-May-18 17:01N 41°16' E 002°11'5 9.2
2018-May-18 16:30N 41°21' E 002°10'1 1.5
2018-May-18 15:59N 41°22' E 002°11'0 0.0
2018-May-18 15:29N 41°22' E 002°11'0 0.0
2018-May-18 14:59N 41°22' E 002°11'0 0.0
2018-May-18 14:29N 41°22' E 002°11'0 0.0
2018-May-18 13:59N 41°22' E 002°11'0 0.0
2018-May-18 13:29N 41°22' E 002°11'0 0.0
2018-May-18 12:59N 41°22' E 002°11'0 0.0
2018-May-18 12:31N 41°22' E 002°11'0 0.0
2018-May-18 12:01N 41°22' E 002°11'0 0.0
2018-May-18 11:29N 41°22' E 002°11'0 0.0
2018-May-18 10:58N 41°22' E 002°11'0 0.0
2018-May-18 10:28N 41°22' E 002°11'0 0.0
2018-May-18 09:58N 41°22' E 002°11'0 0.0
2018-May-18 09:28N 41°22' E 002°11'0 0.0
2018-May-18 07:22N 41°22' E 002°11'0 0.0
2018-May-18 06:55N 41°22' E 002°11'0 0.0
2018-May-18 06:28N 41°22' E 002°11'0 0.4
2018-May-18 06:01N 41°22' E 002°11'4 7.2
2018-May-18 05:30N 41°18' E 002°11'714.0
2018-May-18 05:00N 41°11' E 002°12'917.5
2018-May-18 04:30N 41°02' E 002°12'917.2
2018-May-18 04:00N 40°54' E 002°12'8416.4
2018-May-17 22:54N 39°30' E 002°18'718.5
2018-May-17 22:30N 39°25' E 002°25'816.7
2018-May-17 22:00N 39°28' E 002°35'611.2
2018-May-17 21:30N 39°33' E 002°38'0 0.7
2018-May-17 20:59N 39°33' E 002°38'0 0.0
2018-May-17 20:29N 39°33' E 002°38'0 0.0
2018-May-17 19:59N 39°33' E 002°38'0 0.0
2018-May-17 19:29N 39°33' E 002°38'0 0.0
2018-May-17 18:59N 39°33' E 002°38'0 0.0
2018-May-17 18:29N 39°33' E 002°38'0 0.0
2018-May-17 17:59N 39°33' E 002°38'0 0.0
2018-May-17 17:29N 39°33' E 002°38'0 0.0
2018-May-17 16:59N 39°33' E 002°38'0 0.0
2018-May-17 16:29N 39°33' E 002°38'0 0.0
2018-May-17 15:59N 39°33' E 002°38'0 0.0
2018-May-17 15:29N 39°33' E 002°38'0 0.0
2018-May-17 14:59N 39°33' E 002°38'0 0.0
2018-May-17 14:29N 39°33' E 002°38'0 0.0
2018-May-17 13:59N 39°33' E 002°38'0 0.0
2018-May-17 13:30N 39°33' E 002°38'0 0.0
2018-May-17 12:59N 39°33' E 002°38'0 0.0
2018-May-17 12:26N 39°33' E 002°38'0 0.0
2018-May-17 11:59N 39°33' E 002°38'0 0.0
2018-May-17 11:29N 39°33' E 002°38'0 0.0
2018-May-17 10:59N 39°33' E 002°38'0 0.0
2018-May-17 10:29N 39°33' E 002°38'0 0.0
2018-May-17 09:53N 39°33' E 002°38'0 0.0
2018-May-17 09:29N 39°33' E 002°38'0 0.0
2018-May-17 08:59N 39°33' E 002°38'0 0.0
2018-May-17 08:29N 39°33' E 002°38'0 0.0
2018-May-17 07:59N 39°33' E 002°38'0 0.0
2018-May-17 07:29N 39°33' E 002°38'0 0.0
2018-May-17 06:59N 39°33' E 002°38'0 0.0
2018-May-17 06:29N 39°33' E 002°38'0 0.0
2018-May-17 05:59N 39°33' E 002°38'0 0.0
2018-May-17 05:29N 39°33' E 002°38'0 0.0
2018-May-17 04:59N 39°33' E 002°38'0 0.0
2018-May-17 04:29N 39°33' E 002°38'0 0.0
2018-May-17 03:59N 39°33' E 002°38'0 0.0
2018-May-17 03:29N 39°33' E 002°38'0 0.0
2018-May-17 02:58N 39°33' E 002°38'0 0.0
2018-May-17 02:28N 39°33' E 002°38'0 0.0
2018-May-17 02:00N 39°33' E 002°38'0 0.0
2018-May-17 01:30N 39°33' E 002°38'0 0.0
2018-May-17 01:00N 39°33' E 002°38'0 0.0
2018-May-17 00:30N 39°33' E 002°38'0 0.0
2018-May-16 23:57N 39°33' E 002°38'0 0.0
2018-May-16 23:30N 39°33' E 002°38'0 0.0
2018-May-16 23:00N 39°33' E 002°38'0 0.0
2018-May-16 22:30N 39°33' E 002°38'0 0.0
2018-May-16 22:00N 39°33' E 002°38'0 0.0
2018-May-16 21:30N 39°33' E 002°38'0 0.0
2018-May-16 21:00N 39°33' E 002°38'0 0.0
2018-May-16 20:30N 39°33' E 002°38'0 0.0
2018-May-16 19:51N 39°33' E 002°38'0 0.0
2018-May-16 19:30N 39°33' E 002°38'0 0.0
2018-May-16 19:00N 39°33' E 002°38'0 0.0
2018-May-16 18:30N 39°33' E 002°38'0 0.0
2018-May-16 18:00N 39°33' E 002°38'0 0.0
2018-May-16 17:30N 39°33' E 002°38'0 0.0
2018-May-16 17:00N 39°33' E 002°38'0 0.0
2018-May-16 16:30N 39°33' E 002°38'0 0.0
2018-May-16 16:00N 39°33' E 002°38'0 0.0
2018-May-16 15:30N 39°33' E 002°38'0 0.0
2018-May-16 15:00N 39°33' E 002°38'0 0.0
2018-May-16 14:30N 39°33' E 002°38'0 0.0
2018-May-16 14:00N 39°33' E 002°38'0 0.0
2018-May-16 13:27N 39°33' E 002°38'0 0.0
2018-May-16 12:59N 39°33' E 002°38'0 0.0
2018-May-16 12:29N 39°33' E 002°38'0 0.0
2018-May-16 11:59N 39°33' E 002°38'0 0.0
2018-May-16 11:28N 39°33' E 002°38'0 0.0
2018-May-16 10:58N 39°33' E 002°38'0 0.2
2018-May-16 10:30N 39°33' E 002°38'0 0.7
2018-May-16 10:00N 39°33' E 002°38'0 0.0
2018-May-16 09:30N 39°33' E 002°38'0 0.0
2018-May-16 09:00N 39°33' E 002°38'0 0.0
2018-May-16 08:30N 39°33' E 002°38'0 0.0
2018-May-16 08:00N 39°33' E 002°38'0 0.0
2018-May-16 07:30N 39°33' E 002°38'0 0.0
2018-May-16 07:00N 39°33' E 002°38'0 0.0
2018-May-16 06:30N 39°33' E 002°38'0 0.0
2018-May-16 06:00N 39°33' E 002°38'0 0.0
2018-May-16 05:30N 39°33' E 002°38'0 0.0
2018-May-16 05:00N 39°33' E 002°38'0 0.0
2018-May-16 04:29N 39°33' E 002°38'0 0.0
2018-May-16 03:59N 39°33' E 002°38'0 0.0
2018-May-16 03:29N 39°33' E 002°38'0 0.0
2018-May-16 02:59N 39°33' E 002°38'0 0.0
2018-May-16 02:28N 39°33' E 002°38'0 0.0
2018-May-16 01:58N 39°33' E 002°38'0 0.0
2018-May-16 01:25N 39°33' E 002°38'0 0.0
2018-May-16 00:58N 39°33' E 002°38'0 0.0
2018-May-16 00:28N 39°33' E 002°38'0 0.0
2018-May-15 23:58N 39°33' E 002°38'0 0.0
2018-May-15 23:28N 39°33' E 002°38'0 0.0
2018-May-15 22:58N 39°33' E 002°38'0 0.0
2018-May-15 22:28N 39°33' E 002°38'0 0.0
2018-May-15 21:58N 39°33' E 002°38'0 0.0
2018-May-15 21:30N 39°33' E 002°38'0 0.0
2018-May-15 21:00N 39°33' E 002°38'0 0.0
2018-May-15 20:30N 39°33' E 002°38'0 0.0
2018-May-15 20:00N 39°33' E 002°38'0 0.0
2018-May-15 19:30N 39°33' E 002°38'0 0.0
2018-May-15 19:00N 39°33' E 002°38'0 0.0
2018-May-15 18:30N 39°33' E 002°38'0 0.0
2018-May-15 18:00N 39°33' E 002°38'0 0.0
2018-May-15 17:30N 39°33' E 002°38'0 0.0
2018-May-15 17:00N 39°33' E 002°38'0 0.0
2018-May-15 16:30N 39°33' E 002°38'0 0.0
2018-May-15 16:00N 39°33' E 002°38'1 1.5
2018-May-15 15:30N 39°33' E 002°39'3 6.5
2018-May-15 15:00N 39°30' E 002°38'5 9.9
2018-May-15 14:30N 39°26' E 002°34'713.3
2018-May-15 14:00N 39°20' E 002°29'714.0
2018-May-15 13:29N 39°15' E 002°24'11914.2
2018-May-15 05:08N 37°55' E 000°31'214.5
2018-May-15 05:00N 37°54' E 000°28'4515.4
2018-May-15 02:03N 37°28' W 000°18'115.2
2018-May-15 02:00N 37°27' W 000°19'714.9
2018-May-15 01:30N 37°23' W 000°26'814.9
2018-May-15 00:56N 37°18' W 000°35'614.9
2018-May-15 00:30N 37°14' W 000°41'714.0
2018-May-15 00:00N 37°10' W 000°49'713.9
2018-May-14 23:30N 37°06' W 000°56'815.4
2018-May-14 23:00N 37°01' W 001°03'815.3
2018-May-14 22:28N 36°56' W 001°12'20215.0
2018-May-14 09:03N 36°05' W 005°14'221.6
2018-May-14 08:59N 36°05' W 005°16'5 9.3
2018-May-14 08:28N 36°06' W 005°22'0 0.0
2018-May-14 05:03N 36°06' W 005°22'0 0.0
2018-May-14 04:39N 36°06' W 005°22'0 0.1
2018-May-14 04:21N 36°06' W 005°22'0 0.0
2018-May-14 03:57N 36°06' W 005°22'0 0.0
2018-May-14 03:29N 36°06' W 005°22'712.2
2018-May-14 02:55N 35°60' W 005°22'7 2.9
2018-May-14 00:33N 36°06' W 005°22'0 0.1
2018-May-14 00:03N 36°06' W 005°22'0 0.2
2018-May-13 23:48N 36°06' W 005°22'0 0.1
2018-May-13 23:30N 36°06' W 005°22'0 0.2
2018-May-13 23:00N 36°06' W 005°22'1 1.8
2018-May-13 22:30N 36°06' W 005°22'1 1.7
2018-May-13 22:00N 36°05' W 005°22'2 3.0
2018-May-13 21:30N 36°05' W 005°21'1 2.7
2018-May-13 21:00N 36°05' W 005°19'3 5.0
2018-May-13 20:29N 36°04' W 005°16'4 7.9
2018-May-13 20:00N 36°01' W 005°18'714.3
2018-May-13 19:30N 35°58' W 005°27'  
Track history (hours):
 
Tides and Currents Weather Stations Pressure Air Temp Water Temp Dewpoint Dewpoint Depression Visibility Wind Speed Wind Dir Waves Ship Positions

Celebrity Galaxy

Last reported at 2018-May-19 23:35 UTC. Time now 2018-May-20 21:23 UTC.
Position N 38°57' E 003°24'.

Length 262 m.

Type: Passenger vessel. MMSI: 249051000.

Date/timePositionNaut miles runAvg speedWind from/ knotsBaromVisibWave heightAir tempDewpointWater temp
2018-May-19 23:35N 38°57' E 003°24'1819.1
2018-May-19 22:38N 39°02' E 003°01'419.1
2018-May-19 22:24N 39°03' E 002°56'819.0
2018-May-19 21:57N 39°09' E 002°48'919.3
2018-May-19 21:30N 39°17' E 002°42'918.7
2018-May-19 21:00N 39°25' E 002°39'815.5
2018-May-19 20:30N 39°33' E 002°39'1 1.9
2018-May-19 20:00N 39°33' E 002°38'0 0.0
2018-May-19 19:30N 39°33' E 002°38'0 0.0
2018-May-19 18:59N 39°33' E 002°38'0 0.0
2018-May-19 18:29N 39°33' E 002°38'0 0.0
2018-May-19 17:59N 39°33' E 002°38'0 0.0
2018-May-19 17:29N 39°33' E 002°38'0 0.0
2018-May-19 16:59N 39°33' E 002°38'0 0.0
2018-May-19 16:29N 39°33' E 002°38'0 0.0
2018-May-19 15:59N 39°33' E 002°38'0 0.0
2018-May-19 15:29N 39°33' E 002°38'0 0.0
2018-May-19 14:59N 39°33' E 002°38'0 0.0
2018-May-19 14:29N 39°33' E 002°38'0 0.0
2018-May-19 13:59N 39°33' E 002°38'0 0.0
2018-May-19 13:29N 39°33' E 002°38'0 0.0
2018-May-19 12:59N 39°33' E 002°38'0 0.0
2018-May-19 12:29N 39°33' E 002°38'0 0.0
2018-May-19 11:59N 39°33' E 002°38'0 0.0
2018-May-19 11:29N 39°33' E 002°38'0 0.0
2018-May-19 10:59N 39°33' E 002°38'0 0.0
2018-May-19 10:29N 39°33' E 002°38'0 0.0
2018-May-19 09:59N 39°33' E 002°38'0 0.0
2018-May-19 09:29N 39°33' E 002°38'0 0.0
2018-May-19 08:56N 39°33' E 002°38'0 0.0
2018-May-19 08:29N 39°33' E 002°38'0 0.0
2018-May-19 07:59N 39°33' E 002°38'0 0.0
2018-May-19 07:28N 39°33' E 002°38'0 0.0
2018-May-19 06:58N 39°33' E 002°38'0 0.0
2018-May-19 06:28N 39°33' E 002°38'0 0.0
2018-May-19 05:58N 39°33' E 002°38'0 0.0
2018-May-19 05:28N 39°33' E 002°38'0 0.0
2018-May-19 04:58N 39°33' E 002°38'0 0.0
2018-May-19 04:28N 39°33' E 002°38'0 0.0
2018-May-19 03:58N 39°33' E 002°38'0 0.2
2018-May-19 03:30N 39°33' E 002°38'2 3.8
2018-May-19 03:00N 39°31' E 002°39'511.0
2018-May-19 02:30N 39°27' E 002°35'611.3
2018-May-19 02:00N 39°26' E 002°27'9412.2
2018-May-18 18:19N 40°59' E 002°11'514.0
2018-May-18 17:57N 41°04' E 002°11'613.6
2018-May-18 17:31N 41°10' E 002°11'713.3
2018-May-18 17:01N 41°16' E 002°11'5 9.2
2018-May-18 16:30N 41°21' E 002°10'1 1.5
2018-May-18 15:59N 41°22' E 002°11'0 0.0
2018-May-18 15:29N 41°22' E 002°11'0 0.0
2018-May-18 14:59N 41°22' E 002°11'0 0.0
2018-May-18 14:29N 41°22' E 002°11'0 0.0
2018-May-18 13:59N 41°22' E 002°11'0 0.0
2018-May-18 13:29N 41°22' E 002°11'0 0.0
2018-May-18 12:59N 41°22' E 002°11'0 0.0
2018-May-18 12:31N 41°22' E 002°11'0 0.0
2018-May-18 12:01N 41°22' E 002°11'0 0.0
2018-May-18 11:29N 41°22' E 002°11'0 0.0
2018-May-18 10:58N 41°22' E 002°11'0 0.0
2018-May-18 10:28N 41°22' E 002°11'0 0.0
2018-May-18 09:58N 41°22' E 002°11'0 0.0
2018-May-18 09:28N 41°22' E 002°11'0 0.0
2018-May-18 07:22N 41°22' E 002°11'0 0.0
2018-May-18 06:55N 41°22' E 002°11'0 0.0
2018-May-18 06:28N 41°22' E 002°11'0 0.4
2018-May-18 06:01N 41°22' E 002°11'4 7.2
2018-May-18 05:30N 41°18' E 002°11'714.0
2018-May-18 05:00N 41°11' E 002°12'917.5
2018-May-18 04:30N 41°02' E 002°12'917.2
2018-May-18 04:00N 40°54' E 002°12'8416.4
2018-May-17 22:54N 39°30' E 002°18'718.5
2018-May-17 22:30N 39°25' E 002°25'816.7
2018-May-17 22:00N 39°28' E 002°35'611.2
2018-May-17 21:30N 39°33' E 002°38'0 0.7
2018-May-17 20:59N 39°33' E 002°38'0 0.0
2018-May-17 20:29N 39°33' E 002°38'0 0.0
2018-May-17 19:59N 39°33' E 002°38'0 0.0
2018-May-17 19:29N 39°33' E 002°38'0 0.0
2018-May-17 18:59N 39°33' E 002°38'0 0.0
2018-May-17 18:29N 39°33' E 002°38'0 0.0
2018-May-17 17:59N 39°33' E 002°38'0 0.0
2018-May-17 17:29N 39°33' E 002°38'0 0.0
2018-May-17 16:59N 39°33' E 002°38'0 0.0
2018-May-17 16:29N 39°33' E 002°38'0 0.0
2018-May-17 15:59N 39°33' E 002°38'0 0.0
2018-May-17 15:29N 39°33' E 002°38'0 0.0
2018-May-17 14:59N 39°33' E 002°38'0 0.0
2018-May-17 14:29N 39°33' E 002°38'0 0.0
2018-May-17 13:59N 39°33' E 002°38'0 0.0
2018-May-17 13:30N 39°33' E 002°38'0 0.0
2018-May-17 12:59N 39°33' E 002°38'0 0.0
2018-May-17 12:26N 39°33' E 002°38'0 0.0
2018-May-17 11:59N 39°33' E 002°38'0 0.0
2018-May-17 11:29N 39°33' E 002°38'0 0.0
2018-May-17 10:59N 39°33' E 002°38'0 0.0
2018-May-17 10:29N 39°33' E 002°38'0 0.0
2018-May-17 09:53N 39°33' E 002°38'0 0.0
2018-May-17 09:29N 39°33' E 002°38'0 0.0
2018-May-17 08:59N 39°33' E 002°38'0 0.0
2018-May-17 08:29N 39°33' E 002°38'0 0.0
2018-May-17 07:59N 39°33' E 002°38'0 0.0
2018-May-17 07:29N 39°33' E 002°38'0 0.0
2018-May-17 06:59N 39°33' E 002°38'0 0.0
2018-May-17 06:29N 39°33' E 002°38'0 0.0
2018-May-17 05:59N 39°33' E 002°38'0 0.0
2018-May-17 05:29N 39°33' E 002°38'0 0.0
2018-May-17 04:59N 39°33' E 002°38'0 0.0
2018-May-17 04:29N 39°33' E 002°38'0 0.0
2018-May-17 03:59N 39°33' E 002°38'0 0.0
2018-May-17 03:29N 39°33' E 002°38'0 0.0
2018-May-17 02:58N 39°33' E 002°38'0 0.0
2018-May-17 02:28N 39°33' E 002°38'0 0.0
2018-May-17 02:00N 39°33' E 002°38'0 0.0
2018-May-17 01:30N 39°33' E 002°38'0 0.0
2018-May-17 01:00N 39°33' E 002°38'0 0.0
2018-May-17 00:30N 39°33' E 002°38'0 0.0
2018-May-16 23:57N 39°33' E 002°38'0 0.0
2018-May-16 23:30N 39°33' E 002°38'0 0.0
2018-May-16 23:00N 39°33' E 002°38'0 0.0
2018-May-16 22:30N 39°33' E 002°38'0 0.0
2018-May-16 22:00N 39°33' E 002°38'0 0.0
2018-May-16 21:30N 39°33' E 002°38'0 0.0
2018-May-16 21:00N 39°33' E 002°38'0 0.0
2018-May-16 20:30N 39°33' E 002°38'0 0.0
2018-May-16 19:51N 39°33' E 002°38'0 0.0
2018-May-16 19:30N 39°33' E 002°38'0 0.0
2018-May-16 19:00N 39°33' E 002°38'0 0.0
2018-May-16 18:30N 39°33' E 002°38'0 0.0
2018-May-16 18:00N 39°33' E 002°38'0 0.0
2018-May-16 17:30N 39°33' E 002°38'0 0.0
2018-May-16 17:00N 39°33' E 002°38'0 0.0
2018-May-16 16:30N 39°33' E 002°38'0 0.0
2018-May-16 16:00N 39°33' E 002°38'0 0.0
2018-May-16 15:30N 39°33' E 002°38'0 0.0
2018-May-16 15:00N 39°33' E 002°38'0 0.0
2018-May-16 14:30N 39°33' E 002°38'0 0.0
2018-May-16 14:00N 39°33' E 002°38'0 0.0
2018-May-16 13:27N 39°33' E 002°38'0 0.0
2018-May-16 12:59N 39°33' E 002°38'0 0.0
2018-May-16 12:29N 39°33' E 002°38'0 0.0
2018-May-16 11:59N 39°33' E 002°38'0 0.0
2018-May-16 11:28N 39°33' E 002°38'0 0.0
2018-May-16 10:58N 39°33' E 002°38'0 0.2
2018-May-16 10:30N 39°33' E 002°38'0 0.7
2018-May-16 10:00N 39°33' E 002°38'0 0.0
2018-May-16 09:30N 39°33' E 002°38'0 0.0
2018-May-16 09:00N 39°33' E 002°38'0 0.0
2018-May-16 08:30N 39°33' E 002°38'0 0.0
2018-May-16 08:00N 39°33' E 002°38'0 0.0
2018-May-16 07:30N 39°33' E 002°38'0 0.0
2018-May-16 07:00N 39°33' E 002°38'0 0.0
2018-May-16 06:30N 39°33' E 002°38'0 0.0
2018-May-16 06:00N 39°33' E 002°38'0 0.0
2018-May-16 05:30N 39°33' E 002°38'0 0.0
2018-May-16 05:00N 39°33' E 002°38'0 0.0
2018-May-16 04:29N 39°33' E 002°38'0 0.0
2018-May-16 03:59N 39°33' E 002°38'0 0.0
2018-May-16 03:29N 39°33' E 002°38'0 0.0
2018-May-16 02:59N 39°33' E 002°38'0 0.0
2018-May-16 02:28N 39°33' E 002°38'0 0.0
2018-May-16 01:58N 39°33' E 002°38'0 0.0
2018-May-16 01:25N 39°33' E 002°38'0 0.0
2018-May-16 00:58N 39°33' E 002°38'0 0.0
2018-May-16 00:28N 39°33' E 002°38'0 0.0
2018-May-15 23:58N 39°33' E 002°38'0 0.0
2018-May-15 23:28N 39°33' E 002°38'0 0.0
2018-May-15 22:58N 39°33' E 002°38'0 0.0
2018-May-15 22:28N 39°33' E 002°38'0 0.0
2018-May-15 21:58N 39°33' E 002°38'0 0.0
2018-May-15 21:30N 39°33' E 002°38'0 0.0
2018-May-15 21:00N 39°33' E 002°38'0 0.0
2018-May-15 20:30N 39°33' E 002°38'0 0.0
2018-May-15 20:00N 39°33' E 002°38'0 0.0
2018-May-15 19:30N 39°33' E 002°38'0 0.0
2018-May-15 19:00N 39°33' E 002°38'0 0.0
2018-May-15 18:30N 39°33' E 002°38'0 0.0
2018-May-15 18:00N 39°33' E 002°38'0 0.0
2018-May-15 17:30N 39°33' E 002°38'0 0.0
2018-May-15 17:00N 39°33' E 002°38'0 0.0
2018-May-15 16:30N 39°33' E 002°38'0 0.0
2018-May-15 16:00N 39°33' E 002°38'1 1.5
2018-May-15 15:30N 39°33' E 002°39'3 6.5
2018-May-15 15:00N 39°30' E 002°38'5 9.9
2018-May-15 14:30N 39°26' E 002°34'713.3
2018-May-15 14:00N 39°20' E 002°29'714.0
2018-May-15 13:29N 39°15' E 002°24'11914.2
2018-May-15 05:08N 37°55' E 000°31'214.5
2018-May-15 05:00N 37°54' E 000°28'4515.4
2018-May-15 02:03N 37°28' W 000°18'115.2
2018-May-15 02:00N 37°27' W 000°19'714.9
2018-May-15 01:30N 37°23' W 000°26'814.9
2018-May-15 00:56N 37°18' W 000°35'614.9
2018-May-15 00:30N 37°14' W 000°41'714.0
2018-May-15 00:00N 37°10' W 000°49'713.9
2018-May-14 23:30N 37°06' W 000°56'815.4
2018-May-14 23:00N 37°01' W 001°03'815.3
2018-May-14 22:28N 36°56' W 001°12'20215.0
2018-May-14 09:03N 36°05' W 005°14'221.6
2018-May-14 08:59N 36°05' W 005°16'5 9.3
2018-May-14 08:28N 36°06' W 005°22'0 0.0
2018-May-14 05:03N 36°06' W 005°22'0 0.0
2018-May-14 04:39N 36°06' W 005°22'0 0.1
2018-May-14 04:21N 36°06' W 005°22'0 0.0
2018-May-14 03:57N 36°06' W 005°22'0 0.0
2018-May-14 03:29N 36°06' W 005°22'712.2
2018-May-14 02:55N 35°60' W 005°22'7 2.9
2018-May-14 00:33N 36°06' W 005°22'0 0.1
2018-May-14 00:03N 36°06' W 005°22'0 0.2
2018-May-13 23:48N 36°06' W 005°22'0 0.1
2018-May-13 23:30N 36°06' W 005°22'0 0.2
2018-May-13 23:00N 36°06' W 005°22'1 1.8
2018-May-13 22:30N 36°06' W 005°22'1 1.7
2018-May-13 22:00N 36°05' W 005°22'2 3.0
2018-May-13 21:30N 36°05' W 005°21'1 2.7
2018-May-13 21:00N 36°05' W 005°19'3 5.0
2018-May-13 20:29N 36°04' W 005°16'4 7.9
2018-May-13 20:00N 36°01' W 005°18'714.3
2018-May-13 19:30N 35°58' W 005°27'  

Dump ship's entire track history